Raleigh County Memorial Airport Beckley US
ICAO: KBKW
IATA: BKW
Category: Medium
Scheduled Services: Yes

Elevation: 2504 ft
TransAlt. 18000 ft.

Airport Communications:
CHARLESTON APP/DEP:118.95
ASOS:121.55
AWOS 3:124.65
ELKINS RDO:117.7
CTAF/UNICOM:123

KBKW Zoom In..

Runways:

(A) RW 01 length 6750 ft width 150 ft
---- / hdg 13

(B) RW 10 length 5001 ft width 100 ft
---- / hdg 103

(C) RW 19 length 6750 ft width 150 ft
ILS 111.70 / hdg 193

(D) RW 28 length 5001 ft width 100 ft
---- / hdg 283

Location; KBKW
Day. 23 / Time. 15.19 Zulu
* Altimeter: 29.77
* Temperature: 07° c. 44.6°f.
* Wind from: 280° Speed 18 kn with Gusts up to 25 kn.
Dewpoint: 01° c.
Visibility: 10 Statute Miles.
Clouds: Scattered 3000 ft.
Clouds: Broken 3700 ft.
Clouds: Overcast 4900 ft.

KBKW 231519Z AUTO 28018G25KT 10SM SCT030 BKN037 OVC049 07/01 A2977 RMK AO2 T00720006 TSNO


Wind From 280°
Speed 18 kn.

YouTube Music Video
 
jpsmedia.com for Web Design  worldairports.se 2018   terms of use